Latest Weather Observations for Darwin Airport

IDD60901

Issued at 8:21 pm CST Friday 22 November 2019 (issued every 10 minutes, with the page automatically refreshed every 10 minutes)

About weather observations | Map of Darwin area stations | Latest observations for Darwin area | Other Formats
Station Details ID: 014015 Name: DARWIN AIRPORT Lat: -12.42 Lon: 130.89 Height: 30.4 m
Data from the previous 72 hours. | See also: Recent months at Darwin Airport
Date/Time
CST
Temp
°C
App
Temp
°C
Dew
Point
°C
Rel
Hum
%
Delta-T
°C
Wind Press
QNH
hPa
Press
MSL
hPa
Rain since
9am
mm
Dir  Spd
km/h
Gust
km/h
Spd
kts
Gust
kts
22/08:00pm 30.2 33.8 24.3 70 4.1 W 13 15 7 8 1009.7 1009.4 0.0
22/07:30pm 30.5 33.6 24.2 69 4.4 WNW 15 20 8 11 1009.0 1008.7 0.0
22/07:00pm 30.7 33.5 24.3 68 4.5 W 17 22 9 12 1008.9 1008.6 0.0
22/06:30pm 31.1 32.9 23.3 63 5.4 W 19 24 10 13 1008.4 1008.1 0.0
22/06:00pm 31.8 33.0 22.5 58 6.4 WNW 20 26 11 14 1008.4 1008.1 0.0
22/05:30pm 33.4 34.1 22.2 52 7.7 WNW 22 30 12 16 1008.4 1008.1 0.0
22/05:00pm 34.5 33.2 18.2 38 10.6 WNW 22 28 12 15 1008.6 1008.3 0.0
22/04:30pm 34.6 33.9 18.2 37 10.7 WNW 19 24 10 13 1008.9 1008.6 0.0
22/04:00pm 33.6 32.9 18.2 40 10.0 WNW 19 24 10 13 1009.1 1008.8 0.0
22/03:30pm 34.3 34.3 19.7 42 9.7 WNW 19 24 10 13 1008.9 1008.6 0.0
22/03:00pm 34.1 34.5 19.8 43 9.5 WNW 17 22 9 12 1009.2 1008.9 0.0
22/02:30pm 33.2 34.4 20.7 47 8.4 WNW 15 22 8 12 1009.6 1009.3 0.0
22/02:00pm 33.2 35.5 22.1 52 7.6 WNW 13 22 7 12 1010.3 1010.0 0.0
22/01:30pm 33.3 35.7 22.2 52 7.6 NW 13 20 7 11 1010.5 1010.2 0.0
22/01:00pm 32.9 34.5 20.7 48 8.2 NW 13 20 7 11 1010.8 1010.5 0.0
22/12:30pm 33.6 33.8 18.6 41 9.8 NNW 15 22 8 12 1011.2 1010.9 0.0
22/12:00pm 32.3 35.2 23.2 58 6.3 NNW 13 22 7 12 1011.4 1011.1 0.0
22/11:30am 32.2 35.2 23.4 59 6.1 NNW 13 19 7 10 1011.9 1011.6 0.0
22/11:00am 31.7 33.8 23.1 60 5.9 NNW 17 26 9 14 1011.8 1011.5 0.0
22/10:30am 32.4 34.2 23.5 59 6.2 N 20 24 11 13 1011.8 1011.5 0.0
22/10:00am 31.6 34.5 23.2 61 5.8 N 13 19 7 10 1012.2 1011.9 0.0
22/09:30am 31.3 35.3 23.8 64 5.2 ENE 9 15 5 8 1012.1 1011.8 0.0
22/09:00am 30.8 35.3 23.6 65 5.0 NNW 6 11 3 6 1012.1 1011.8 0.0
22/08:30am 30.5 34.6 23.9 68 4.6 NNE 9 13 5 7 1011.8 1011.5 0.0
22/08:00am 29.7 34.6 24.4 73 3.7 NE 6 9 3 5 1012.1 1011.8 0.0
22/07:30am 28.5 33.6 24.9 81 2.5 ENE 7 9 4 5 1011.7 1011.4 0.0
22/07:00am 27.2 33.2 24.9 87 1.6 NE 2 4 1 2 1011.0 1010.7 0.0
22/06:30am 26.4 31.9 24.7 90 1.2 ENE 4 4 2 2 1010.4 1010.1 0.0
22/06:00am 26.1 31.9 24.5 91 1.1 NE 2 4 1 2 1010.1 1009.8 0.0
22/05:30am 26.1 32.2 24.5 91 1.1 CALM 0 0 0 0 1009.4 1009.1 0.0
22/05:00am 26.9 32.4 24.6 87 1.6 S 4 6 2 3 1009.1 1008.8 0.0
22/04:30am 27.3 33.4 24.4 84 2.0 CALM 0 2 0 1 1008.8 1008.5 0.0
22/04:00am 26.8 32.3 24.6 88 1.5 ENE 4 6 2 3 1008.5 1008.2 0.0
22/03:30am 26.5 31.5 24.5 89 1.4 NNE 6 6 3 3 1008.4 1008.1 0.0
22/03:00am 26.7 31.5 24.2 86 1.7 NNE 6 6 3 3 1008.1 1007.8 0.0
22/02:30am 27.1 32.3 24.2 84 2.0 N 4 6 2 3 1008.4 1008.1 0.0
22/02:00am 28.3 33.6 23.7 76 3.2 WNW 2 4 1 2 1008.4 1008.1 0.0
22/01:30am 28.6 33.5 23.7 75 3.4 W 4 6 2 3 1008.8 1008.5 0.0
22/01:00am 28.8 33.7 24.7 78 2.9 W 7 9 4 5 1008.9 1008.6 0.0
22/12:30am 29.1 33.5 25.0 78 2.9 WNW 11 15 6 8 1009.1 1008.8 0.0
22/12:00am 29.2 33.5 24.9 77 3.0 WNW 11 15 6 8 1009.4 1009.1 0.0
 
Date/Time
CST
Temp
°C
App
Temp
°C
Dew
Point
°C
Rel
Hum
%
Delta-T
°C
Wind Press
QNH
hPa
Press
MSL
hPa
Rain since
9am
mm
Dir  Spd
km/h
Gust
km/h
Spd
kts
Gust
kts
21/11:30pm 29.4 33.5 24.5 75 3.4 NW 11 17 6 9 1009.5 1009.2 0.0
21/11:00pm 29.5 33.4 24.9 76 3.2 NW 13 19 7 10 1009.8 1009.5 0.0
21/10:30pm 29.7 32.9 25.0 76 3.3 NW 17 22 9 12 1009.7 1009.4 0.0
21/10:00pm 30.1 32.5 24.2 70 4.1 WNW 19 22 10 12 1009.7 1009.4 0.0
21/09:30pm 30.2 33.3 24.2 70 4.2 WNW 15 19 8 10 1009.6 1009.3 0.0
21/09:00pm 30.3 33.2 23.8 68 4.5 WNW 15 19 8 10 1009.5 1009.2 0.0
21/08:30pm 30.4 32.7 23.5 66 4.8 WNW 17 22 9 12 1009.0 1008.7 0.0
21/08:00pm 30.6 33.0 23.7 66 4.8 WNW 17 22 9 12 1008.6 1008.3 0.0
21/07:30pm 30.7 33.2 23.8 66 4.8 WNW 17 22 9 12 1008.6 1008.3 0.0
21/07:00pm 30.9 33.3 24.2 67 4.7 WNW 19 24 10 13 1008.4 1008.1 0.0
21/06:30pm 31.6 33.6 24.0 64 5.3 WNW 20 26 11 14 1008.1 1007.8 0.0
21/06:00pm 32.3 33.8 23.0 58 6.4 NW 20 24 11 13 1007.7 1007.4 0.0
21/05:30pm 33.2 33.9 21.6 50 7.9 WNW 20 24 11 13 1007.4 1007.1 0.0
21/05:00pm 33.9 34.5 21.0 47 8.7 WNW 19 24 10 13 1007.5 1007.2 0.0
21/04:30pm 33.8 34.9 21.3 48 8.5 WNW 17 24 9 13 1006.8 1006.5 0.0
21/04:00pm 34.0 34.8 20.6 45 9.0 WNW 17 22 9 12 1007.2 1006.9 0.0
21/03:30pm 33.9 35.7 23.6 55 7.2 NW 20 26 11 14 1007.5 1007.2 0.0
21/03:00pm 33.4 35.5 24.1 58 6.5 WNW 20 28 11 15 1007.9 1007.6 0.0
21/02:30pm 33.1 34.6 24.4 60 6.1 WNW 24 32 13 17 1008.3 1008.0 0.0
21/02:00pm 33.1 35.3 24.9 62 5.8 NW 22 32 12 17 1008.7 1008.4 0.0
21/01:30pm 32.9 35.2 24.5 61 5.9 WNW 20 28 11 15 1009.1 1008.8 0.0
21/01:00pm 33.0 35.4 24.3 60 6.1 NW 19 28 10 15 1009.5 1009.2 0.0
21/12:30pm 32.5 35.0 24.5 62 5.6 NW 19 24 10 13 1010.0 1009.7 0.0
21/12:00pm 32.6 35.9 25.1 64 5.3 WNW 17 24 9 13 1010.3 1010.0 0.0
21/11:30am 33.2 36.4 24.9 61 5.9 NW 17 22 9 12 1010.6 1010.3 0.0
21/11:00am 32.2 35.7 24.2 62 5.6 NW 13 17 7 9 1011.0 1010.7 0.0
21/10:30am 32.1 36.7 24.2 63 5.5 W 7 13 4 7 1011.2 1010.9 0.0
21/10:00am 32.3 36.7 23.8 61 5.9 WSW 7 13 4 7 1011.3 1011.0 0.0
21/09:30am 31.4 35.8 23.8 64 5.3 WSW 7 11 4 6 1011.5 1011.2 0.0
21/09:00am 30.4 35.7 25.0 73 3.8 SSW 6 13 3 7 1011.5 1011.2 0.2
21/08:30am 29.2 34.3 25.5 80 2.6 SSW 9 13 5 7 1011.3 1011.0 0.2
21/08:00am 28.7 33.9 25.7 84 2.1 S 9 11 5 6 1011.1 1010.8 0.2
21/07:30am 28.9 34.5 24.9 79 2.8 WSW 4 7 2 4 1010.9 1010.6 0.2
21/07:00am 27.9 32.8 24.3 81 2.5 SW 6 7 3 4 1010.4 1010.1 0.2
21/06:30am 25.7 30.4 23.4 87 1.6 N 4 6 2 3 1009.7 1009.4 0.2
21/06:00am 25.4 30.8 23.3 88 1.4 CALM 0 4 0 2 1009.4 1009.1 0.2
21/05:30am 25.3 29.8 22.9 86 1.6 NE 4 4 2 2 1009.2 1008.9 0.2
21/05:00am 25.3 29.8 22.9 86 1.6 NNE 4 6 2 3 1008.9 1008.6 0.2
21/04:30am 25.5 29.8 22.7 84 1.9 NE 4 6 2 3 1008.7 1008.4 0.2
21/04:00am 25.5 29.7 22.5 83 2.0 NE 4 4 2 2 1008.6 1008.3 0.2
21/03:30am 25.4 29.5 22.3 83 2.1 ENE 4 6 2 3 1008.5 1008.2 0.2
21/03:00am 25.4 29.4 22.1 82 2.2 ENE 4 6 2 3 1008.4 1008.1 0.2
21/02:30am 25.5 29.2 22.2 82 2.2 ENE 6 7 3 4 1008.6 1008.3 0.2
21/02:00am 25.8 29.4 22.1 80 2.5 ENE 6 9 3 5 1008.8 1008.5 0.2
21/01:30am 25.9 29.8 22.6 82 2.2 ENE 6 9 3 5 1009.1 1008.8 0.2
21/01:00am 26.0 30.0 22.8 82 2.2 E 6 7 3 4 1009.2 1008.9 0.2
21/12:30am 26.4 31.1 22.7 80 2.5 SSW 2 6 1 3 1009.5 1009.2 0.2
21/12:00am 26.5 30.6 22.3 78 2.8 W 4 6 2 3 1009.6 1009.3 0.2
 
Date/Time
CST
Temp
°C
App
Temp
°C
Dew
Point
°C
Rel
Hum
%
Delta-T
°C
Wind Press
QNH
hPa
Press
MSL
hPa
Rain since
9am
mm
Dir  Spd
km/h
Gust
km/h
Spd
kts
Gust
kts
20/11:30pm 26.6 31.2 22.5 78 2.8 NW 2 2 1 1 1009.9 1009.6 0.2
20/11:00pm 26.4 31.2 22.2 78 2.8 CALM 0 0 0 0 1009.9 1009.6 0.2
20/10:30pm 26.5 31.2 21.9 76 3.1 CALM 0 0 0 0 1009.7 1009.4 0.2
20/10:00pm 26.5 30.5 22.0 76 3.0 W 4 4 2 2 1009.6 1009.3 0.2
20/09:30pm 27.0 30.5 21.9 73 3.4 WSW 6 6 3 3 1009.3 1009.0 0.2
20/09:00pm 27.4 31.2 21.6 70 3.9 WSW 4 6 2 3 1008.9 1008.6 0.2
20/08:30pm 27.4 30.6 21.6 70 3.9 SW 7 9 4 5 1008.9 1008.6 0.2
20/08:00pm 27.5 29.7 20.5 65 4.6 WSW 9 11 5 6 1008.6 1008.3 0.2
20/07:30pm 28.0 30.1 18.9 57 5.9 WSW 6 9 3 5 1008.2 1007.9 0.2
20/07:00pm 27.9 29.6 19.3 59 5.6 WSW 9 13 5 7 1007.9 1007.6 0.2
20/06:30pm 27.7 30.1 20.1 63 5.0 W 7 11 4 6 1007.8 1007.5 0.2
20/06:00pm 28.5 31.1 20.0 60 5.6 SW 6 11 3 6 1007.5 1007.2 0.2
20/05:30pm 28.5 29.7 19.1 56 6.1 SW 11 19 6 10 1007.5 1007.2 0.2
20/05:00pm 29.8 29.8 18.9 52 7.1 SW 17 20 9 11 1007.5 1007.2 0.2
20/04:30pm 30.7 30.9 18.5 48 7.9 WNW 15 20 8 11 1007.2 1006.9 0.2
20/04:00pm 28.6 28.1 16.0 46 7.8 SSW 13 19 7 10 1006.6 1006.3 0.2
20/03:42pm 28.6 25.4 16.2 47 7.7 SE 28 48 15 26 1008.0 1007.7 0.2
20/03:30pm 28.4 27.6 17.1 50 7.1 WNW 17 26 9 14 1007.9 1007.6 0.0
20/03:21pm 32.8 33.6 23.1 56 6.7 WNW 24 32 13 17 1007.8 1007.5 0.0
20/03:00pm 33.4 33.2 22.7 53 7.4 WNW 28 35 15 19 1007.3 1007.0 0.0
20/02:30pm 34.0 34.6 24.2 56 6.9 WNW 28 33 15 18 1007.5 1007.2 0.0
20/02:00pm 33.3 33.9 23.5 56 6.8 WNW 26 32 14 17 1008.0 1007.7 0.0
20/01:30pm 32.8 34.8 24.6 62 5.8 WNW 22 32 12 17 1008.5 1008.2 0.0
20/01:00pm 33.6 36.3 24.7 59 6.3 NW 19 24 10 13 1008.9 1008.6 0.0
20/12:30pm 33.4 35.6 23.3 55 7.0 NW 17 24 9 13 1009.5 1009.2 0.0
20/12:00pm 33.0 35.6 23.3 56 6.7 WNW 15 22 8 12 1009.9 1009.6 0.0
20/11:30am 33.0 35.0 23.0 55 6.9 WNW 17 20 9 11 1010.1 1009.8 0.0
20/11:00am 32.0 34.3 22.7 58 6.4 NW 15 20 8 11 1010.3 1010.0 0.0
20/10:30am 32.4 35.7 23.9 61 5.9 WNW 13 19 7 10 1010.6 1010.3 0.0
20/10:00am 31.0 34.9 24.3 67 4.7 WNW 11 17 6 9 1010.8 1010.5 0.0
20/09:30am 31.4 36.0 24.1 65 5.1 NW 7 15 4 8 1010.8 1010.5 0.0
20/09:00am 30.9 35.8 24.6 69 4.4 NW 7 13 4 7 1010.7 1010.4 0.0
20/08:30am 30.2 35.8 24.9 73 3.7 WSW 4 7 2 4 1010.6 1010.3 0.0
20/08:00am 29.5 35.8 24.8 76 3.3 CALM 0 2 0 1 1010.4 1010.1 0.0
20/07:30am 28.5 34.0 24.6 79 2.7 ESE 4 4 2 2 1010.2 1009.9 0.0
20/07:00am 26.9 31.9 23.9 83 2.1 E 4 6 2 3 1009.9 1009.6 0.0
20/06:30am 25.7 30.1 23.5 88 1.5 ENE 6 6 3 3 1009.5 1009.2 0.0
20/06:00am 25.4 29.3 23.0 86 1.6 ENE 7 7 4 4 1009.1 1008.8 0.0
20/05:30am 25.3 30.0 23.4 89 1.3 ENE 4 6 2 3 1008.9 1008.6 0.0
20/05:00am 25.6 30.1 23.7 89 1.3 E 6 6 3 3 1008.6 1008.3 0.0
20/04:30am 25.8 30.8 23.8 89 1.4 ENE 4 6 2 3 1008.4 1008.1 0.0
20/04:00am 26.2 31.4 24.2 89 1.4 ENE 4 4 2 2 1008.4 1008.1 0.0
20/03:30am 26.4 31.6 24.2 88 1.5 ENE 4 6 2 3 1008.4 1008.1 0.0
20/03:00am 26.7 32.1 24.5 88 1.5 E 4 6 2 3 1008.3 1008.0 0.0
20/02:30am 27.2 32.7 24.6 86 1.8 W 4 4 2 2 1008.6 1008.3 0.0
20/02:00am 28.7 34.3 24.8 79 2.7 WSW 4 6 2 3 1008.6 1008.3 0.0
20/01:30am 28.9 34.0 24.6 77 3.0 W 6 7 3 4 1008.9 1008.6 0.0
20/01:00am 28.9 34.0 24.9 79 2.8 W 7 9 4 5 1009.2 1008.9 0.0
20/12:30am 28.2 33.1 24.6 81 2.5 W 7 9 4 5 1009.4 1009.1 0.0
20/12:00am 28.5 33.3 24.5 79 2.8 W 7 11 4 6 1009.5 1009.2 0.0
 
Date/Time
CST
Temp
°C
App
Temp
°C
Dew
Point
°C
Rel
Hum
%
Delta-T
°C
Wind Press
QNH
hPa
Press
MSL
hPa
Rain since
9am
mm
Dir  Spd
km/h
Gust
km/h
Spd
kts
Gust
kts
19/11:30pm 29.0 33.5 24.6 77 3.1 W 9 11 5 6 1009.7 1009.4 0.0
19/11:00pm 29.5 33.7 24.8 76 3.3 W 11 15 6 8 1009.7 1009.4 0.0
19/10:30pm 29.6 34.3 24.9 76 3.3 W 9 15 5 8 1009.8 1009.5 0.0
19/10:00pm 29.8 33.3 24.8 74 3.5 W 15 20 8 11 1009.6 1009.3 0.0
19/09:30pm 29.9 33.8 24.8 74 3.6 W 13 19 7 10 1009.5 1009.2 0.0
19/09:00pm 30.1 33.4 24.5 72 3.9 W 15 20 8 11 1009.3 1009.0 0.0
19/08:30pm 30.1 33.9 24.7 73 3.8 W 13 20 7 11 1009.3 1009.0 0.0

Latest Capital City Observations: Canberra | Sydney | Melbourne | Brisbane | Adelaide | Perth | Hobart | Darwin

Other formats

Comma delimited format used in spreadsheet applications
http://www.bom.gov.au/fwo/IDD60901/IDD60901.94120.axf

JavaScript Object Notation format (JSON) in row-major order
http://www.bom.gov.au/fwo/IDD60901/IDD60901.94120.json

Data quality

Most of these data are generated automatically and are frequently updated. Quality checks on data are not normally performed. It is possible for incorrect values to appear. Refer to information at About Latest Weather Observations and please check the disclaimer before using these data.